createdAt,value
2022-10-13T03:17:39.319Z,100.00
2022-10-13T03:20:57.231Z,100.00
2022-10-13T03:24:07.758Z,100.00
2022-10-13T03:27:17.748Z,100.00
2022-10-13T03:30:30.508Z,100.00
2022-10-13T03:33:42.389Z,100.00
2022-10-13T03:36:52.383Z,100.00
2022-10-13T03:40:02.358Z,100.00
2022-10-13T03:43:14.741Z,100.00
2022-10-13T03:46:27.558Z,100.00
2022-10-13T03:49:41.521Z,100.00
2022-10-13T03:52:54.250Z,100.00
2022-10-13T03:56:05.715Z,100.00
2022-10-13T03:59:18.708Z,100.00
2022-10-13T04:02:28.837Z,100.00
2022-10-13T04:05:43.758Z,100.00
2022-10-13T04:08:54.022Z,100.00
2022-10-13T04:12:06.384Z,100.00
2022-10-13T04:15:16.500Z,100.00
2022-10-13T04:18:26.475Z,100.00
2022-10-13T04:21:41.660Z,100.00
2022-10-13T04:24:51.705Z,100.00
2022-10-13T04:28:01.640Z,100.00
2022-10-13T04:31:12.194Z,100.00
2022-10-13T04:34:22.164Z,100.00
2022-10-13T04:37:36.250Z,100.00
2022-10-13T04:40:46.226Z,100.00
2022-10-13T04:43:59.363Z,100.00
2022-10-13T04:47:09.451Z,100.00
2022-10-13T04:50:19.764Z,100.00
2022-10-13T04:53:35.290Z,100.00
2022-10-13T04:56:45.655Z,100.00
2022-10-13T05:17:23.893Z,100.00
2022-10-13T05:20:33.871Z,100.00
2022-10-13T05:23:45.307Z,100.00
2022-10-13T05:27:00.116Z,100.00
2022-10-13T05:30:11.071Z,100.00
2022-10-13T05:33:22.352Z,100.00
2022-10-13T05:36:34.952Z,100.00
2022-10-13T05:39:51.439Z,100.00
2022-10-13T05:43:01.611Z,100.00
2022-10-13T05:46:11.854Z,100.00
2022-10-13T05:49:26.745Z,100.00
2022-10-13T05:52:38.055Z,100.00
2022-10-13T05:55:50.377Z,100.00
2022-10-13T05:59:03.901Z,100.00
2022-10-13T06:02:17.325Z,100.00
2022-10-13T06:05:33.352Z,100.00
2022-10-13T06:08:43.901Z,100.00
2022-10-13T06:11:53.955Z,100.00
2022-10-13T06:15:06.224Z,100.00
2022-10-13T06:18:16.156Z,100.00
2022-10-13T06:21:30.803Z,100.00
2022-10-13T06:24:43.397Z,100.00
2022-10-13T06:27:54.396Z,100.00
2022-10-13T06:31:06.670Z,100.00
2022-10-13T06:34:19.177Z,100.00
2022-10-13T06:37:33.192Z,100.00
2022-10-13T06:40:44.000Z,100.00
2022-10-13T06:43:53.946Z,100.00
2022-10-13T06:47:05.379Z,100.00
2022-10-13T06:50:15.566Z,100.00
2022-10-13T06:57:34.467Z,100.00
2022-10-13T07:00:47.814Z,100.00
2022-10-13T07:03:58.931Z,100.00
2022-10-13T07:07:14.262Z,100.00
2022-10-13T07:10:32.505Z,100.00
2022-10-13T07:13:46.505Z,100.00
2022-10-13T07:17:01.434Z,100.00
2022-10-13T07:20:11.821Z,100.00
2022-10-13T07:23:21.870Z,100.00
2022-10-13T07:30:12.880Z,100.00
2022-10-13T07:33:23.553Z,100.00
2022-10-13T07:36:35.529Z,100.00
2022-10-13T07:39:45.404Z,100.00
2022-10-13T07:42:57.177Z,100.00
2022-10-13T07:46:09.573Z,100.00
2022-10-13T07:49:20.296Z,100.00
2022-10-13T07:52:30.325Z,100.00
2022-10-13T07:55:40.381Z,100.00
2022-10-13T07:58:50.647Z,100.00
2022-10-13T08:02:02.181Z,100.00
2022-10-13T08:05:12.099Z,100.00
2022-10-13T08:08:23.136Z,100.00
2022-10-13T08:11:33.173Z,100.00
2022-10-13T08:14:43.451Z,100.00
2022-10-13T08:17:55.442Z,100.00
2022-10-13T08:21:45.798Z,100.00
2022-10-13T08:24:42.877Z,100.00
2022-10-13T08:27:55.773Z,100.00
2022-10-13T08:31:17.109Z,100.00
2022-10-13T08:34:28.689Z,100.00
2022-10-13T08:37:38.748Z,100.00
2022-10-13T08:41:02.533Z,100.00
2022-10-13T08:48:00.028Z,100.00
2022-10-13T08:51:14.267Z,100.00
2022-10-13T08:57:52.336Z,100.00
2022-10-13T09:01:15.180Z,100.00
2022-10-13T09:04:33.732Z,100.00
2022-10-13T09:07:47.170Z,100.00
2022-10-13T09:10:59.998Z,100.00
2022-10-13T09:14:11.897Z,100.00
2022-10-13T09:21:16.390Z,100.00
2022-10-13T09:24:28.446Z,100.00
2022-10-13T09:27:44.430Z,100.00
2022-10-13T09:31:24.342Z,100.00
2022-10-13T09:34:37.175Z,100.00
2022-10-13T09:38:03.424Z,100.00
2022-10-13T09:41:20.799Z,100.00
2022-10-13T09:44:33.090Z,100.00
2022-10-13T09:47:53.110Z,100.00
2022-10-13T09:51:06.468Z,100.00
2022-10-13T09:54:38.075Z,100.00
2022-10-13T09:57:52.648Z,100.00
2022-10-13T10:01:02.738Z,100.00
2022-10-13T10:04:17.633Z,100.00
2022-10-13T10:07:32.890Z,100.00
2022-10-13T10:10:47.327Z,100.00
2022-10-13T10:13:58.927Z,100.00
2022-10-13T10:17:18.716Z,100.00
2022-10-13T10:20:43.553Z,100.00
2022-10-13T10:24:01.651Z,100.00
2022-10-13T10:30:44.292Z,100.00
2022-10-13T10:34:06.614Z,100.00
2022-10-13T10:37:29.219Z,100.00
2022-10-13T10:40:45.950Z,100.00
2022-10-13T10:44:01.727Z,99.76
2022-10-13T10:47:23.376Z,97.57
2022-10-13T10:50:39.356Z,97.74
2022-10-13T10:53:57.576Z,97.92
2022-10-13T10:57:13.238Z,96.22
2022-10-13T11:00:28.761Z,95.48
2022-10-13T11:03:49.734Z,93.82
2022-10-13T11:07:00.174Z,91.46
2022-10-13T11:10:21.443Z,89.47
2022-10-13T11:13:31.394Z,86.92
2022-10-13T11:16:59.531Z,85.27
2022-10-13T11:20:39.169Z,83.83
2022-10-13T11:23:51.305Z,80.92
2022-10-13T11:27:27.773Z,80.88
2022-10-13T11:30:47.416Z,79.74
2022-10-13T11:34:00.813Z,81.39
2022-10-13T11:37:20.869Z,83.58
2022-10-13T11:40:35.244Z,86.21
2022-10-13T11:43:54.443Z,86.94
2022-10-13T11:47:18.981Z,87.28
2022-10-13T11:50:39.951Z,88.61
2022-10-13T11:53:57.665Z,89.30
2022-10-13T11:57:24.490Z,90.50
2022-10-13T12:00:34.561Z,91.26
2022-10-13T12:03:48.352Z,91.63
2022-10-13T12:07:03.494Z,91.91
2022-10-13T12:10:21.354Z,92.81
2022-10-13T12:13:50.695Z,93.01
2022-10-13T12:17:05.297Z,93.25
2022-10-13T12:20:22.625Z,93.66
2022-10-13T12:23:38.798Z,94.02
2022-10-13T12:26:48.741Z,94.30
2022-10-13T12:30:06.101Z,95.14
2022-10-13T12:33:24.187Z,96.68
2022-10-13T12:36:36.402Z,96.72
2022-10-13T13:17:07.784Z,91.20
2022-10-13T13:20:23.118Z,89.98
2022-10-13T13:23:35.535Z,89.31
2022-10-13T13:26:47.558Z,88.92
2022-10-13T13:30:03.103Z,88.48
2022-10-13T13:33:14.440Z,88.64
2022-10-13T13:36:26.431Z,88.53
2022-10-13T13:39:36.411Z,88.62
2022-10-13T13:42:46.716Z,88.12
2022-10-13T13:45:56.764Z,87.82
2022-10-13T13:49:07.993Z,87.96
2022-10-13T13:52:18.599Z,87.43
2022-10-13T13:55:29.909Z,87.31
2022-10-13T13:58:39.933Z,88.24
2022-10-13T14:01:49.911Z,87.49
2022-10-13T14:05:07.579Z,88.32
2022-10-13T14:08:17.570Z,89.59
2022-10-13T14:11:27.600Z,89.06
2022-10-13T14:14:37.712Z,88.97
2022-10-13T14:17:47.689Z,87.86
2022-10-13T14:20:59.433Z,88.15
2022-10-13T14:24:11.671Z,87.88
2022-10-13T14:27:24.090Z,87.88
2022-10-13T14:30:35.738Z,89.12
2022-10-13T14:33:45.627Z,90.07
2022-10-13T14:36:56.856Z,90.65
2022-10-13T14:40:12.986Z,91.04
2022-10-13T14:43:22.944Z,92.41
2022-10-13T14:46:33.066Z,93.90
2022-10-13T14:49:43.117Z,95.18
2022-10-13T14:52:57.336Z,95.46
2022-10-13T14:56:17.597Z,96.41
2022-10-13T14:59:36.836Z,98.25
2022-10-13T15:02:46.829Z,99.63
2022-10-13T15:05:56.865Z,100.00
2022-10-13T15:09:12.302Z,100.00
2022-10-13T15:12:25.212Z,100.00
2022-10-13T15:15:37.115Z,100.00
2022-10-13T15:18:47.374Z,100.00
2022-10-13T15:21:57.224Z,100.00
2022-10-13T15:25:14.237Z,100.00
2022-10-13T15:28:24.927Z,100.00
2022-10-13T15:31:42.171Z,100.00
2022-10-13T15:34:55.827Z,100.00
2022-10-13T15:38:05.720Z,100.00
2022-10-13T15:41:19.864Z,100.00
2022-10-13T15:44:40.711Z,100.00
2022-10-13T15:48:03.810Z,100.00
2022-10-13T15:51:15.703Z,100.00
2022-10-13T15:54:27.605Z,100.00
2022-10-13T15:57:39.191Z,100.00
2022-10-13T16:00:49.177Z,100.00
2022-10-13T16:03:59.107Z,100.00
2022-10-13T16:07:08.978Z,100.00
2022-10-13T16:10:21.687Z,100.00
2022-10-13T16:13:32.818Z,100.00
2022-10-13T16:16:50.381Z,100.00
2022-10-13T16:20:02.760Z,100.00
2022-10-13T16:23:12.619Z,100.00
2022-10-13T16:26:22.529Z,100.00
2022-10-13T16:29:37.240Z,100.00
2022-10-13T16:32:53.166Z,100.00
2022-10-13T16:36:07.951Z,100.00
2022-10-13T16:39:17.820Z,100.00
2022-10-13T16:42:27.859Z,100.00
2022-10-13T16:45:58.549Z,100.00
2022-10-13T16:49:08.994Z,100.00
2022-10-13T16:52:18.865Z,100.00
2022-10-13T16:55:31.165Z,100.00
2022-10-13T16:58:45.271Z,100.00
2022-10-13T17:01:57.939Z,100.00
2022-10-13T17:05:08.161Z,100.00
2022-10-13T17:08:20.281Z,100.00
2022-10-13T17:11:32.293Z,100.00
2022-10-13T17:14:45.196Z,100.00
2022-10-13T17:17:56.468Z,100.00
2022-10-13T17:21:10.022Z,100.00
2022-10-13T17:24:27.370Z,100.00
2022-10-13T17:27:38.119Z,100.00
2022-10-13T17:31:01.175Z,100.00
2022-10-13T17:34:12.486Z,100.00
2022-10-13T17:37:22.863Z,100.00
2022-10-13T17:40:34.880Z,100.00
2022-10-13T17:43:45.386Z,100.00
2022-10-13T17:47:00.976Z,100.00
2022-10-13T17:50:12.247Z,100.00
2022-10-13T17:53:22.098Z,100.00
2022-10-13T17:56:34.669Z,100.00
2022-10-13T17:59:44.522Z,100.00
2022-10-13T18:02:54.396Z,100.00
2022-10-13T18:06:15.823Z,100.00
2022-10-13T18:09:25.767Z,100.00
2022-10-13T18:12:35.671Z,100.00
2022-10-13T18:15:45.529Z,100.00
2022-10-13T18:18:56.512Z,100.00
2022-10-13T18:22:07.730Z,100.00
2022-10-13T18:25:17.691Z,100.00
2022-10-13T18:28:30.519Z,100.00
2022-10-13T18:31:42.056Z,100.00
2022-10-13T18:34:51.912Z,100.00
2022-10-13T18:38:10.693Z,100.00
2022-10-13T18:41:25.283Z,100.00
2022-10-13T18:44:37.959Z,100.00
2022-10-13T18:47:51.674Z,100.00
2022-10-13T18:51:06.621Z,100.00
2022-10-13T18:54:17.888Z,100.00
2022-10-13T18:57:30.454Z,100.00
2022-10-13T19:00:40.459Z,100.00
2022-10-13T19:03:51.897Z,100.00
2022-10-13T19:07:02.149Z,100.00
2022-10-13T19:10:19.000Z,100.00
2022-10-13T19:13:30.130Z,100.00
2022-10-13T19:16:47.454Z,100.00
2022-10-13T19:19:57.427Z,100.00
2022-10-13T19:23:07.424Z,100.00
2022-10-13T19:26:20.943Z,100.00
2022-10-13T19:29:32.734Z,100.00
2022-10-13T19:32:42.702Z,100.00
2022-10-13T19:35:55.414Z,100.00
2022-10-13T19:39:10.781Z,100.00
2022-10-13T19:42:23.185Z,100.00
2022-10-13T19:45:33.270Z,100.00
2022-10-13T19:48:43.656Z,100.00
2022-10-13T19:51:54.219Z,100.00
2022-10-13T19:55:04.433Z,100.00
2022-10-13T19:58:20.948Z,100.00
2022-10-13T20:01:31.365Z,100.00
2022-10-13T20:04:42.508Z,100.00
2022-10-13T20:07:54.476Z,100.00
2022-10-13T20:11:12.344Z,100.00
2022-10-13T20:14:30.773Z,100.00
2022-10-13T20:17:41.274Z,100.00
2022-10-13T20:20:51.297Z,100.00
2022-10-13T20:24:01.259Z,100.00
2022-10-13T20:27:14.147Z,100.00
2022-10-13T20:30:25.661Z,100.00
2022-10-13T20:33:38.014Z,100.00
2022-10-13T20:36:52.026Z,100.00
2022-10-13T20:40:02.131Z,100.00
2022-10-13T20:43:14.892Z,100.00
2022-10-13T20:46:26.648Z,100.00
2022-10-13T20:49:36.656Z,100.00
2022-10-13T20:52:46.519Z,100.00
2022-10-13T20:55:57.216Z,100.00
